CheckWX is a tool to help pilots better visualize weather data.  It is not intended as a substitute for an official pre-flight weather briefing.

16:08:19 UTC

EFKS METAR
Kuusamo Airport
Kuusamo, Finland
Current

18 mins ago

EFKS 201550Z AUTO 36014KT 9999 -SHSN NSC M09/M13 Q1002
Observed
Feb-20 @ 15:50 UTC
Wind
  • 360° at 14 KTS
Visibility
10,000+ meters
Flight Rules
VFR
Conditions
Light Snow
Cloud Levels
  • Clear skies
Temperature
-9°C / 16°F
Dewpoint
-13°C / 9°F
Humidity
73%
Altimeter
29.59" Hg
Pressure
1001.92 hPa
Previous

48 mins ago

EFKS 201520Z AUTO 36014KT 320V030 9999 -SHSN SCT016 SCT073 M09/M12 Q1001
Observed
Feb-20 @ 15:20 UTC
Wind
  • 360° at 14 KTS
Visibility
10,000+ meters
Flight Rules
VFR
Conditions
Light Snow
Cloud Levels
  • Scattered at 1,600' AGL
  • Scattered at 7,300' AGL
Temperature
-9°C / 16°F
Dewpoint
-12°C / 10°F
Humidity
79%
Altimeter
29.56" Hg
Pressure
1000.92 hPa
Previous

1 hour ago

EFKS 201450Z AUTO 01014G25KT 340V040 9999 -SN BKN016 M08/M12 Q1001
Observed
Feb-20 @ 14:50 UTC
Wind
  • 010° at 14 KTS
  • Gusting to 25 KTS
Visibility
10,000+ meters
Flight Rules
MVFR
Conditions
Light Snow
Cloud Levels
  • Broken at 1,600' AGL
Temperature
-8°C / 18°F
Dewpoint
-12°C / 10°F
Humidity
73%
Altimeter
29.56" Hg
Pressure
1000.92 hPa